KTHV/THV METAR and TAF weather

Enter ICAO airport designator
Station Type Date Time Source
KTHV METAR 2023/02/05 13:53 UTC NOAA

KTHV 051353Z AUTO 19008KT 10SM CLR 02/M09 A3020 RMK AO2 SLP234 T00171094


Station Type Date Time Source
KTHV Decoded METAR 2023/02/05 13:53 UTC NOAA

YORK AIRPORT, PA, United States (KTHV) 39-55N 076-53W 144M
Feb 05, 2023 - 08:53 AM EST / 2023.02.05 1353 UTC
Wind: from the S (190 degrees) at 9 MPH (8 KT):0
Visibility: 10 mile(s):0
Sky conditions: clear
Temperature: 35.1 F (1.7 C)
Dew Point: 15.1 F (-9.4 C)
Relative Humidity: 43%
Pressure (altimeter): 30.2 in. Hg (1022 hPa)
ob: KTHV 051353Z AUTO 19008KT 10SM CLR 02/M09 A3020 RMK AO2 SLP234 T00171094
cycle: 14

Station Type Date Time Source
KTHV TAF UTC NOAA

Error!

Example: see airport list